createdAt,value
2023-01-20T00:01:55.587Z,14.20
2023-01-20T00:03:57.760Z,15.40
2023-01-20T00:05:59.567Z,11.93
2023-01-20T00:08:01.303Z,13.77
2023-01-20T00:10:03.248Z,10.33
2023-01-20T00:12:05.305Z,9.20
2023-01-20T00:14:07.056Z,11.10
2023-01-20T00:16:10.691Z,10.47
2023-01-20T00:18:12.540Z,9.00
2023-01-20T00:20:14.402Z,9.00
2023-01-20T00:22:16.310Z,7.90
2023-01-20T00:24:18.140Z,7.00
2023-01-20T00:26:21.741Z,7.40
2023-01-20T00:28:23.545Z,7.33
2023-01-20T00:30:25.425Z,7.50
2023-01-20T00:32:27.146Z,8.03
2023-01-20T00:34:29.115Z,7.00
2023-01-20T00:36:32.642Z,7.20
2023-01-20T00:38:34.500Z,7.40
2023-01-20T00:40:36.555Z,7.43
2023-01-20T00:42:38.294Z,7.10
2023-01-20T00:44:39.938Z,8.90
2023-01-20T00:46:41.650Z,7.87
2023-01-20T00:48:43.568Z,7.97
2023-01-20T00:50:45.207Z,7.53
2023-01-20T00:52:46.888Z,8.80
2023-01-20T00:54:48.661Z,10.00
2023-01-20T00:56:50.470Z,8.37
2023-01-20T00:58:52.398Z,9.40
2023-01-20T01:00:55.385Z,9.23
2023-01-20T01:02:57.234Z,8.67
2023-01-20T01:04:59.010Z,9.07
2023-01-20T01:07:00.653Z,8.97
2023-01-20T01:09:02.365Z,9.27
2023-01-20T01:11:05.014Z,10.20
2023-01-20T01:13:07.899Z,10.77
2023-01-20T01:15:10.291Z,12.40
2023-01-20T01:17:11.963Z,9.83
2023-01-20T01:19:13.671Z,9.10
2023-01-20T01:21:17.466Z,9.23
2023-01-20T01:23:19.200Z,8.73
2023-01-20T01:25:21.148Z,9.33
2023-01-20T01:27:22.914Z,9.10
2023-01-20T01:29:25.412Z,8.90
2023-01-20T01:31:27.349Z,9.43
2023-01-20T01:33:30.112Z,10.10
2023-01-20T01:35:31.912Z,9.13
2023-01-20T01:37:33.932Z,8.37
2023-01-20T01:39:35.617Z,10.23
2023-01-20T01:41:37.325Z,10.07
2023-01-20T01:43:40.431Z,10.87
2023-01-20T01:45:42.470Z,9.40
2023-01-20T01:47:57.998Z,9.80
2023-01-20T01:50:00.006Z,10.37
2023-01-20T01:52:04.412Z,8.83
2023-01-20T01:54:12.616Z,9.20
2023-01-20T01:56:30.749Z,8.50
2023-01-20T01:58:37.106Z,9.40
2023-01-20T02:00:39.815Z,9.17
2023-01-20T02:02:43.974Z,9.80
2023-01-20T02:04:45.950Z,9.27
2023-01-20T02:06:52.496Z,9.87
2023-01-20T02:08:54.322Z,10.30
2023-01-20T02:10:55.981Z,10.27
2023-01-20T02:12:59.503Z,10.07
2023-01-20T02:15:03.228Z,10.00
2023-01-20T02:17:11.462Z,11.23
2023-01-20T02:19:34.459Z,11.37
2023-01-20T02:21:39.067Z,11.77
2023-01-20T02:24:38.017Z,11.80
2023-01-20T02:26:53.451Z,10.27
2023-01-20T02:29:12.943Z,11.27
2023-01-20T02:31:33.373Z,11.40
2023-01-20T02:33:56.894Z,11.37
2023-01-20T02:36:18.939Z,11.90
2023-01-20T02:38:32.992Z,12.07
2023-01-20T02:40:48.521Z,12.40
2023-01-20T02:42:59.126Z,11.07
2023-01-20T02:45:22.922Z,12.30
2023-01-20T02:48:02.310Z,11.30
2023-01-20T02:50:13.967Z,11.90
2023-01-20T02:52:26.345Z,12.13
2023-01-20T02:54:31.461Z,11.57
2023-01-20T02:56:36.605Z,12.00
2023-01-20T02:58:50.833Z,11.63
2023-01-20T03:01:15.341Z,11.90
2023-01-20T03:03:22.737Z,11.80
2023-01-20T03:05:33.741Z,11.07
2023-01-20T03:07:40.166Z,11.17
2023-01-20T03:09:47.447Z,12.23
2023-01-20T03:11:54.978Z,12.10
2023-01-20T03:14:09.807Z,11.73
2023-01-20T03:16:32.612Z,12.73
2023-01-20T03:18:35.083Z,13.90
2023-01-20T03:20:37.040Z,12.53
2023-01-20T03:22:38.946Z,12.20
2023-01-20T03:24:43.083Z,12.93
2023-01-20T03:26:44.779Z,14.23
2023-01-20T03:28:48.902Z,14.57
2023-01-20T03:30:51.667Z,15.47
2023-01-20T03:32:53.820Z,14.50
2023-01-20T03:34:56.727Z,13.67
2023-01-20T03:36:59.960Z,15.40
2023-01-20T03:39:01.654Z,18.60
2023-01-20T03:41:38.482Z,96.10
2023-01-20T03:43:57.016Z,32.60
2023-01-20T03:46:10.438Z,17.27
2023-01-20T03:48:32.388Z,16.20
2023-01-20T03:50:43.030Z,18.20
2023-01-20T03:52:46.990Z,18.33
2023-01-20T03:55:02.428Z,18.80
2023-01-20T03:57:12.944Z,19.30
2023-01-20T03:59:16.434Z,19.53
2023-01-20T04:01:21.253Z,20.53
2023-01-20T04:03:28.664Z,19.57
2023-01-20T04:05:30.798Z,18.57
2023-01-20T04:07:33.163Z,19.77
2023-01-20T04:09:39.499Z,19.30
2023-01-20T04:11:41.569Z,20.27
2023-01-20T04:13:43.461Z,20.70
2023-01-20T04:15:46.117Z,21.73
2023-01-20T04:17:47.922Z,22.00
2023-01-20T04:19:49.955Z,23.57
2023-01-20T04:22:10.635Z,23.97
2023-01-20T04:24:26.040Z,21.63
2023-01-20T04:26:27.712Z,22.03
2023-01-20T04:28:30.033Z,21.50
2023-01-20T04:30:31.830Z,22.47
2023-01-20T04:32:33.673Z,21.30
2023-01-20T04:34:35.798Z,21.73
2023-01-20T04:36:37.519Z,19.70
2023-01-20T04:38:39.321Z,19.30
2023-01-20T04:40:41.214Z,19.50
2023-01-20T04:42:43.044Z,20.27
2023-01-20T04:44:45.487Z,21.03
2023-01-20T04:46:47.511Z,19.90
2023-01-20T04:48:49.342Z,22.53
2023-01-20T04:50:51.061Z,21.90
2023-01-20T04:52:56.084Z,22.67
2023-01-20T04:54:57.810Z,21.57
2023-01-20T04:56:59.823Z,23.80
2023-01-20T04:59:01.669Z,22.70
2023-01-20T05:01:03.429Z,22.90
2023-01-20T05:03:06.198Z,22.07
2023-01-20T05:05:08.562Z,22.40
2023-01-20T05:07:10.389Z,22.00
2023-01-20T05:09:15.190Z,20.40
2023-01-20T05:11:17.034Z,27.13
2023-01-20T05:13:19.070Z,22.17
2023-01-20T05:15:20.739Z,22.60
2023-01-20T05:17:22.503Z,22.70
2023-01-20T05:19:24.290Z,23.10
2023-01-20T05:21:26.207Z,23.90
2023-01-20T05:23:27.949Z,21.13
2023-01-20T05:25:29.644Z,23.43
2023-01-20T05:27:31.518Z,21.53
2023-01-20T05:29:33.158Z,19.03
2023-01-20T05:31:34.957Z,19.13
2023-01-20T05:33:37.830Z,19.70
2023-01-20T05:35:39.602Z,19.10
2023-01-20T05:37:41.425Z,18.40
2023-01-20T05:39:43.077Z,18.93
2023-01-20T05:41:46.498Z,17.93
2023-01-20T05:43:48.248Z,18.30
2023-01-20T05:45:49.897Z,25.73
2023-01-20T05:47:56.278Z,19.03
2023-01-20T05:49:58.120Z,17.67
2023-01-20T05:52:00.201Z,18.00
2023-01-20T05:54:02.193Z,18.43
2023-01-20T05:56:05.516Z,18.87
2023-01-20T05:58:07.877Z,18.33
2023-01-20T06:00:10.527Z,18.10
2023-01-20T06:02:13.309Z,17.10
2023-01-20T06:04:14.984Z,17.40
2023-01-20T06:06:18.381Z,17.70
2023-01-20T06:08:20.221Z,17.27
2023-01-20T06:10:25.285Z,16.60
2023-01-20T06:12:26.954Z,17.60
2023-01-20T06:14:28.779Z,17.77
2023-01-20T06:16:30.560Z,17.13
2023-01-20T06:18:33.795Z,17.10
2023-01-20T06:20:35.540Z,17.93
2023-01-20T06:22:37.988Z,18.70
2023-01-20T06:24:40.136Z,18.77
2023-01-20T06:26:41.875Z,16.10
2023-01-20T06:28:43.681Z,16.67
2023-01-20T06:30:45.518Z,16.60
2023-01-20T06:32:48.370Z,17.23
2023-01-20T06:34:50.078Z,15.90
2023-01-20T06:36:51.819Z,15.40
2023-01-20T06:38:53.808Z,15.50
2023-01-20T06:41:03.961Z,14.70
2023-01-20T06:43:05.757Z,16.70
2023-01-20T06:45:08.073Z,14.77
2023-01-20T06:47:10.285Z,16.07
2023-01-20T06:49:12.018Z,15.97
2023-01-20T06:51:19.301Z,17.50
2023-01-20T06:53:21.133Z,18.27
2023-01-20T06:55:23.265Z,18.77
2023-01-20T06:57:24.938Z,20.07
2023-01-20T06:59:26.595Z,19.10
2023-01-20T07:01:30.500Z,19.20
2023-01-20T07:03:32.375Z,21.10
2023-01-20T07:05:34.062Z,19.00
2023-01-20T07:07:35.985Z,21.40
2023-01-20T07:09:37.691Z,21.37
2023-01-20T07:11:40.406Z,21.93
2023-01-20T07:13:42.979Z,22.40
2023-01-20T07:15:44.788Z,22.10
2023-01-20T07:17:46.658Z,21.90
2023-01-20T07:19:48.499Z,21.10
2023-01-20T07:21:50.091Z,20.90
2023-01-20T07:23:51.942Z,22.37
2023-01-20T07:26:01.931Z,21.60
2023-01-20T07:28:04.968Z,22.20
2023-01-20T07:30:07.279Z,23.17
2023-01-20T07:32:08.984Z,22.40
2023-01-20T07:34:10.642Z,21.10
2023-01-20T07:36:14.016Z,21.03
2023-01-20T07:38:15.742Z,21.97
2023-01-20T07:40:18.071Z,22.13
2023-01-20T07:42:19.749Z,23.30
2023-01-20T07:44:21.385Z,22.33
2023-01-20T07:46:23.102Z,21.73
2023-01-20T07:48:25.811Z,21.70
2023-01-20T07:50:27.739Z,19.23
2023-01-20T07:52:29.472Z,20.07
2023-01-20T07:54:31.195Z,19.40
2023-01-20T07:56:33.121Z,20.00
2023-01-20T07:58:35.333Z,19.70
2023-01-20T08:00:36.988Z,19.47
2023-01-20T08:02:39.516Z,19.27
2023-01-20T08:04:41.364Z,18.70
2023-01-20T08:06:43.153Z,18.30
2023-01-20T08:08:45.279Z,19.20
2023-01-20T08:10:53.092Z,21.00
2023-01-20T08:12:54.749Z,20.70
2023-01-20T08:14:56.847Z,19.40
2023-01-20T08:17:00.239Z,18.63
2023-01-20T08:19:02.035Z,18.57
2023-01-20T08:21:08.237Z,18.43
2023-01-20T08:23:10.068Z,14.10
2023-01-20T08:25:11.866Z,15.53
2023-01-20T08:27:13.629Z,13.80
2023-01-20T08:29:15.305Z,15.53
2023-01-20T08:31:20.412Z,16.97
2023-01-20T08:33:22.266Z,13.53
2023-01-20T08:35:24.205Z,13.17
2023-01-20T08:37:26.080Z,14.27
2023-01-20T08:39:27.799Z,13.00
2023-01-20T08:41:33.633Z,13.87
2023-01-20T08:43:35.378Z,11.13
2023-01-20T08:45:37.029Z,11.50
2023-01-20T08:47:44.331Z,10.87
2023-01-20T08:49:46.140Z,12.10
2023-01-20T08:51:48.894Z,11.67
2023-01-20T08:53:51.545Z,11.40
2023-01-20T08:55:58.459Z,10.63
2023-01-20T08:58:01.570Z,13.30
2023-01-20T09:00:05.912Z,13.60
2023-01-20T09:02:09.529Z,12.40
2023-01-20T09:04:11.697Z,11.70
2023-01-20T09:06:14.490Z,11.53
2023-01-20T09:08:17.541Z,13.67
2023-01-20T09:10:19.857Z,13.07
2023-01-20T09:12:21.569Z,14.40
2023-01-20T09:14:25.073Z,12.10
2023-01-20T09:16:26.768Z,14.40
2023-01-20T09:18:28.499Z,13.87
2023-01-20T09:20:30.563Z,13.30
2023-01-20T09:22:32.422Z,14.33
2023-01-20T09:24:34.225Z,11.70
2023-01-20T09:26:38.971Z,12.87
2023-01-20T09:28:44.509Z,11.50
2023-01-20T09:30:46.549Z,13.43
2023-01-20T09:32:53.101Z,12.10
2023-01-20T09:34:55.263Z,12.70
2023-01-20T09:37:19.496Z,13.83
2023-01-20T09:39:40.639Z,12.13
2023-01-20T09:42:07.470Z,14.00
2023-01-20T09:44:09.118Z,12.93
2023-01-20T09:46:14.651Z,11.97
2023-01-20T09:49:01.779Z,13.00
2023-01-20T09:51:31.239Z,11.80
2023-01-20T09:53:47.756Z,12.20
2023-01-20T09:55:53.258Z,10.17
2023-01-20T09:58:05.612Z,12.10
2023-01-20T10:00:21.786Z,12.40
2023-01-20T10:02:31.879Z,11.60
2023-01-20T10:04:53.084Z,11.67
2023-01-20T10:07:02.507Z,12.03
2023-01-20T10:09:17.848Z,11.80
2023-01-20T10:11:22.245Z,11.93
2023-01-20T10:13:36.188Z,11.10
2023-01-20T10:15:40.258Z,10.80
2023-01-20T10:17:47.929Z,11.20
2023-01-20T10:20:04.057Z,10.53
2023-01-20T10:22:26.956Z,11.07
2023-01-20T10:24:33.959Z,10.77
2023-01-20T10:27:04.084Z,10.40
2023-01-20T10:29:12.053Z,10.70
2023-01-20T10:31:17.785Z,10.63
2023-01-20T10:33:27.971Z,19.43
2023-01-20T10:35:36.911Z,10.33
2023-01-20T10:37:39.517Z,9.20
2023-01-20T10:39:56.376Z,9.73
2023-01-20T10:42:10.463Z,9.60
2023-01-20T10:44:14.501Z,9.73
2023-01-20T10:46:22.503Z,10.60
2023-01-20T10:48:45.531Z,11.77
2023-01-20T10:50:52.749Z,10.30
2023-01-20T10:53:23.245Z,10.43
2023-01-20T10:55:35.963Z,11.30
2023-01-20T10:57:38.874Z,9.83
2023-01-20T10:59:46.610Z,9.63
2023-01-20T11:01:59.411Z,9.23
2023-01-20T11:04:17.225Z,8.90
2023-01-20T11:06:27.075Z,9.50
2023-01-20T11:08:30.214Z,8.63
2023-01-20T11:10:33.821Z,8.10
2023-01-20T11:12:40.239Z,8.73
2023-01-20T11:14:42.259Z,6.47
2023-01-20T11:16:46.967Z,6.93
2023-01-20T11:19:00.110Z,6.90
2023-01-20T11:21:09.221Z,6.87
2023-01-20T11:23:24.457Z,7.23
2023-01-20T11:25:27.600Z,7.73
2023-01-20T11:27:35.173Z,5.70
2023-01-20T11:29:50.037Z,6.77
2023-01-20T11:31:54.376Z,8.67
2023-01-20T11:34:02.215Z,7.63
2023-01-20T11:36:07.176Z,8.07
2023-01-20T11:38:23.914Z,8.70
2023-01-20T11:40:28.368Z,8.50
2023-01-20T11:42:45.040Z,9.67
2023-01-20T11:44:48.667Z,8.60
2023-01-20T11:46:50.396Z,8.70
2023-01-20T11:49:15.640Z,10.10
2023-01-20T11:51:20.871Z,9.30
2023-01-20T11:53:25.606Z,8.77
2023-01-20T11:55:27.579Z,9.20
2023-01-20T11:57:29.361Z,9.10
2023-01-20T11:59:35.001Z,9.07
2023-01-20T12:02:23.399Z,9.07
2023-01-20T12:04:36.739Z,8.67
2023-01-20T12:07:07.661Z,9.13
2023-01-20T12:09:15.683Z,10.40
2023-01-20T12:11:44.018Z,10.10
2023-01-20T12:14:22.481Z,9.93
2023-01-20T12:16:28.153Z,10.37
2023-01-20T12:18:38.687Z,7.50
2023-01-20T12:20:55.069Z,7.80
2023-01-20T12:23:21.096Z,7.87
2023-01-20T12:25:28.472Z,8.30
2023-01-20T12:27:31.091Z,8.60
2023-01-20T12:29:44.872Z,9.40
2023-01-20T12:31:49.247Z,8.87
2023-01-20T12:34:00.745Z,7.93
2023-01-20T12:36:25.080Z,9.40
2023-01-20T12:38:29.654Z,8.87
2023-01-20T12:40:50.243Z,9.57
2023-01-20T12:43:19.606Z,7.57
2023-01-20T12:45:39.325Z,8.40
2023-01-20T12:48:08.962Z,7.97
2023-01-20T12:50:26.974Z,7.93
2023-01-20T12:52:46.336Z,8.57
2023-01-20T12:55:00.182Z,7.20
2023-01-20T12:57:21.109Z,7.67
2023-01-20T12:59:52.350Z,8.30
2023-01-20T13:02:10.047Z,6.87
2023-01-20T13:04:41.223Z,7.50
2023-01-20T13:07:00.003Z,7.13
2023-01-20T13:09:29.442Z,8.30
2023-01-20T13:11:50.217Z,6.73
2023-01-20T13:14:06.852Z,6.20
2023-01-20T13:16:21.278Z,6.27
2023-01-20T13:18:41.866Z,6.10
2023-01-20T13:20:48.274Z,5.70
2023-01-20T13:22:51.984Z,5.57
2023-01-20T13:24:56.692Z,6.90
2023-01-20T13:27:00.858Z,5.80
2023-01-20T13:29:02.855Z,5.50
2023-01-20T13:31:33.389Z,5.93
2023-01-20T13:33:40.946Z,6.00
2023-01-20T13:35:48.961Z,5.60
2023-01-20T13:37:56.616Z,5.50
2023-01-20T13:40:00.357Z,5.13
2023-01-20T13:42:02.286Z,4.43
2023-01-20T13:44:37.101Z,4.50
2023-01-20T13:46:44.614Z,4.30
2023-01-20T13:49:13.010Z,3.70
2023-01-20T13:51:26.791Z,3.70
2023-01-20T13:53:28.971Z,4.07
2023-01-20T13:55:46.240Z,4.60
2023-01-20T13:57:51.762Z,5.10
2023-01-20T13:59:54.640Z,4.73
2023-01-20T14:01:56.449Z,4.67
2023-01-20T14:04:06.822Z,4.20
2023-01-20T14:06:14.335Z,4.27
2023-01-20T14:08:16.993Z,4.20
2023-01-20T14:10:19.549Z,4.00
2023-01-20T14:12:21.757Z,3.97
2023-01-20T14:14:27.530Z,4.07
2023-01-20T14:16:35.475Z,4.13
2023-01-20T14:18:37.407Z,4.40
2023-01-20T14:20:41.081Z,4.23
2023-01-20T14:22:42.847Z,4.53
2023-01-20T14:24:52.962Z,4.50
2023-01-20T14:27:11.939Z,4.63
2023-01-20T14:29:20.099Z,5.30
2023-01-20T14:31:23.931Z,4.77
2023-01-20T14:33:25.867Z,4.53
2023-01-20T14:35:33.526Z,4.57
2023-01-20T14:37:37.920Z,4.70
2023-01-20T14:39:41.006Z,4.70
2023-01-20T14:41:48.844Z,4.60
2023-01-20T14:43:50.553Z,4.60
2023-01-20T14:45:53.171Z,3.87
2023-01-20T14:47:56.891Z,4.40
2023-01-20T14:49:59.055Z,5.30
2023-01-20T14:52:01.928Z,5.23
2023-01-20T14:54:41.123Z,4.80
2023-01-20T14:56:48.420Z,4.80
2023-01-20T14:58:51.444Z,5.77
2023-01-20T15:00:56.836Z,5.70
2023-01-20T15:03:17.932Z,5.27
2023-01-20T15:05:22.673Z,5.97
2023-01-20T15:07:25.693Z,5.60
2023-01-20T15:09:32.705Z,5.80
2023-01-20T15:11:35.804Z,5.77
2023-01-20T15:13:39.505Z,5.70
2023-01-20T15:15:43.785Z,7.00
2023-01-20T15:18:09.407Z,6.03
2023-01-20T15:20:28.095Z,6.27
2023-01-20T15:22:29.930Z,6.17
2023-01-20T15:24:37.487Z,6.77
2023-01-20T15:26:39.279Z,7.13
2023-01-20T15:28:44.830Z,7.80
2023-01-20T15:30:46.565Z,7.00
2023-01-20T15:32:49.192Z,6.53
2023-01-20T15:34:50.875Z,7.13
2023-01-20T15:36:54.124Z,8.03
2023-01-20T15:38:55.985Z,7.70
2023-01-20T15:40:57.813Z,8.27
2023-01-20T15:42:59.889Z,8.23
2023-01-20T15:45:01.644Z,7.40
2023-01-20T15:47:18.754Z,8.40
2023-01-20T15:49:20.409Z,7.43
2023-01-20T15:51:22.151Z,7.30
2023-01-20T15:53:23.847Z,7.70
2023-01-20T15:55:25.597Z,7.13
2023-01-20T15:57:27.367Z,7.13
2023-01-20T15:59:30.292Z,6.40
2023-01-20T16:01:32.226Z,7.47
2023-01-20T16:03:35.664Z,6.27
2023-01-20T16:05:37.337Z,6.20
2023-01-20T16:07:40.497Z,6.80
2023-01-20T16:09:42.479Z,7.37
2023-01-20T16:11:44.155Z,6.60
2023-01-20T16:13:46.597Z,6.80
2023-01-20T16:15:48.529Z,6.80
2023-01-20T16:17:52.852Z,6.43
2023-01-20T16:19:54.874Z,7.53
2023-01-20T16:21:56.599Z,5.90
2023-01-20T16:23:58.936Z,6.07
2023-01-20T16:26:00.741Z,5.97
2023-01-20T16:28:02.749Z,5.20
2023-01-20T16:30:04.865Z,6.03
2023-01-20T16:32:06.643Z,5.50
2023-01-20T16:34:08.550Z,4.47
2023-01-20T16:36:19.377Z,5.03
2023-01-20T16:38:24.036Z,6.10
2023-01-20T16:40:26.562Z,5.10
2023-01-20T16:42:28.416Z,5.23
2023-01-20T16:44:30.141Z,5.33
2023-01-20T16:46:33.446Z,4.97
2023-01-20T16:48:35.185Z,5.30
2023-01-20T16:50:37.625Z,5.60
2023-01-20T16:52:39.533Z,4.80
2023-01-20T16:54:41.292Z,5.67
2023-01-20T16:56:43.027Z,5.80
2023-01-20T16:58:51.689Z,5.50
2023-01-20T17:00:53.430Z,5.67
2023-01-20T17:02:55.479Z,6.40
2023-01-20T17:04:57.439Z,6.00
2023-01-20T17:06:59.197Z,6.77
2023-01-20T17:09:04.157Z,6.13
2023-01-20T17:11:06.283Z,6.53
2023-01-20T17:13:08.933Z,7.07
2023-01-20T17:15:11.266Z,5.90
2023-01-20T17:17:12.985Z,6.10
2023-01-20T17:19:16.817Z,5.33
2023-01-20T17:21:21.063Z,5.93
2023-01-20T17:23:22.772Z,5.60
2023-01-20T17:25:24.587Z,5.93
2023-01-20T17:27:26.246Z,5.20
2023-01-20T17:29:27.915Z,5.00
2023-01-20T17:31:31.914Z,4.10
2023-01-20T17:33:34.055Z,4.77
2023-01-20T17:35:36.098Z,4.40
2023-01-20T17:37:38.109Z,4.60
2023-01-20T17:39:39.878Z,5.30
2023-01-20T17:41:41.871Z,4.17
2023-01-20T17:43:48.376Z,5.40
2023-01-20T17:45:50.272Z,5.77
2023-01-20T17:47:52.166Z,6.70
2023-01-20T17:49:54.063Z,8.30
2023-01-20T17:51:55.828Z,9.10
2023-01-20T17:53:58.440Z,8.47
2023-01-20T17:56:11.747Z,8.80
2023-01-20T17:58:14.686Z,9.30
2023-01-20T18:00:17.222Z,7.73
2023-01-20T18:02:20.879Z,7.93
2023-01-20T18:04:22.667Z,8.33
2023-01-20T18:06:25.944Z,8.57
2023-01-20T18:08:27.634Z,10.10
2023-01-20T18:10:29.645Z,8.63
2023-01-20T18:12:31.276Z,7.93
2023-01-20T18:14:32.932Z,8.60
2023-01-20T18:16:37.659Z,7.13
2023-01-20T18:18:41.003Z,8.90
2023-01-20T18:20:42.714Z,8.70
2023-01-20T18:22:49.491Z,9.67
2023-01-20T18:24:51.232Z,7.20
2023-01-20T18:26:53.013Z,6.40
2023-01-20T18:28:59.745Z,7.10
2023-01-20T18:31:08.500Z,7.30
2023-01-20T18:33:10.291Z,7.13
2023-01-20T18:35:12.035Z,7.00
2023-01-20T18:37:13.797Z,7.50
2023-01-20T18:39:24.646Z,8.10
2023-01-20T18:41:28.884Z,9.73
2023-01-20T18:43:31.242Z,13.37
2023-01-20T18:45:32.931Z,12.53
2023-01-20T18:47:34.628Z,7.60
2023-01-20T18:49:36.254Z,13.87
2023-01-20T18:51:38.249Z,24.97
2023-01-20T18:53:40.539Z,12.50
2023-01-20T18:55:42.168Z,12.90
2023-01-20T18:57:43.996Z,10.03
2023-01-20T18:59:45.687Z,8.20
2023-01-20T19:01:48.494Z,9.07
2023-01-20T19:03:51.549Z,8.33
2023-01-20T19:05:53.215Z,6.60
2023-01-20T19:07:54.919Z,6.23
2023-01-20T19:09:56.656Z,6.03
2023-01-20T19:11:58.418Z,5.93
2023-01-20T19:14:00.405Z,6.50
2023-01-20T19:16:02.461Z,6.50
2023-01-20T19:18:04.372Z,6.93
2023-01-20T19:20:07.159Z,6.60
2023-01-20T19:22:09.230Z,5.67
2023-01-20T19:24:17.393Z,5.77
2023-01-20T19:26:20.474Z,5.23
2023-01-20T19:28:22.254Z,5.73
2023-01-20T19:30:23.953Z,5.97
2023-01-20T19:32:25.646Z,6.20
2023-01-20T19:34:27.432Z,6.30
2023-01-20T19:36:29.401Z,7.07
2023-01-20T19:38:31.192Z,7.27
2023-01-20T19:40:32.951Z,6.57
2023-01-20T19:42:34.629Z,6.73
2023-01-20T19:44:36.434Z,6.83
2023-01-20T19:46:41.046Z,6.63
2023-01-20T19:48:43.065Z,7.60
2023-01-20T19:50:45.102Z,6.93
2023-01-20T19:52:46.877Z,6.97
2023-01-20T19:54:50.948Z,10.10
2023-01-20T19:56:53.451Z,9.40
2023-01-20T19:58:55.495Z,12.43
2023-01-20T20:01:06.377Z,10.97
2023-01-20T20:03:08.339Z,9.57
2023-01-20T20:05:10.164Z,8.33
2023-01-20T20:07:12.429Z,8.47
2023-01-20T20:09:20.579Z,6.77
2023-01-20T20:11:22.239Z,6.70
2023-01-20T20:13:23.994Z,7.70
2023-01-20T20:15:25.760Z,14.10
2023-01-20T20:17:27.658Z,9.00
2023-01-20T20:19:29.518Z,6.00
2023-01-20T20:21:31.303Z,5.67
2023-01-20T20:23:32.923Z,8.50
2023-01-20T20:25:37.479Z,7.60
2023-01-20T20:27:39.337Z,5.13
2023-01-20T20:29:41.027Z,5.83
2023-01-20T20:31:43.138Z,5.60
2023-01-20T20:33:48.662Z,4.97
2023-01-20T20:35:50.580Z,5.30
2023-01-20T20:37:52.233Z,4.90
2023-01-20T20:39:54.121Z,5.73
2023-01-20T20:41:56.620Z,5.87
2023-01-20T20:44:00.724Z,6.40
2023-01-20T20:46:04.638Z,6.23
2023-01-20T20:48:06.745Z,5.90
2023-01-20T20:50:09.069Z,5.60
2023-01-20T20:52:10.988Z,4.97
2023-01-20T20:54:17.209Z,5.27
2023-01-20T20:56:19.090Z,5.50
2023-01-20T20:58:20.869Z,4.87
2023-01-20T21:00:23.626Z,4.90
2023-01-20T21:02:26.375Z,5.43
2023-01-20T21:04:30.083Z,5.17
2023-01-20T21:06:33.118Z,5.30
2023-01-20T21:08:35.497Z,5.10
2023-01-20T21:10:37.702Z,5.20
2023-01-20T21:12:39.960Z,5.80
2023-01-20T21:14:42.089Z,5.23
2023-01-20T21:16:43.954Z,5.50
2023-01-20T21:18:46.258Z,5.20
2023-01-20T21:20:56.226Z,4.27
2023-01-20T21:22:58.488Z,5.43
2023-01-20T21:25:00.622Z,5.73
2023-01-20T21:27:02.356Z,5.20
2023-01-20T21:29:04.119Z,5.10
2023-01-20T21:31:14.552Z,5.20
2023-01-20T21:33:17.630Z,5.73
2023-01-20T21:35:19.518Z,5.23
2023-01-20T21:37:21.218Z,4.57
2023-01-20T21:39:23.027Z,4.83
2023-01-20T21:41:24.791Z,4.60
2023-01-20T21:43:49.704Z,4.73
2023-01-20T21:45:57.527Z,3.63
2023-01-20T21:48:19.155Z,3.57
2023-01-20T21:50:39.328Z,3.93
2023-01-20T21:52:41.297Z,2.83
2023-01-20T21:54:45.597Z,3.83
2023-01-20T21:56:48.676Z,2.73
2023-01-20T21:58:50.646Z,2.90
2023-01-20T22:00:55.812Z,3.90
2023-01-20T22:02:57.623Z,3.10
2023-01-20T22:04:59.342Z,3.20
2023-01-20T22:07:01.043Z,2.73
2023-01-20T22:09:02.911Z,2.77
2023-01-20T22:11:04.702Z,2.77
2023-01-20T22:13:07.055Z,2.80
2023-01-20T22:15:09.183Z,2.40
2023-01-20T22:17:11.879Z,2.40
2023-01-20T22:19:14.013Z,2.50
2023-01-20T22:21:15.763Z,2.20
2023-01-20T22:23:17.455Z,2.57
2023-01-20T22:25:19.101Z,2.03
2023-01-20T22:27:20.867Z,2.43
2023-01-20T22:29:22.692Z,2.67
2023-01-20T22:31:25.016Z,2.27
2023-01-20T22:33:26.708Z,2.50
2023-01-20T22:35:30.183Z,2.10
2023-01-20T22:37:31.947Z,2.80
2023-01-20T22:39:33.731Z,2.30
2023-01-20T22:41:35.414Z,2.50
2023-01-20T22:43:39.899Z,2.23
2023-01-20T22:45:41.760Z,2.43
2023-01-20T22:47:43.562Z,1.80
2023-01-20T22:49:45.357Z,2.30
2023-01-20T22:51:47.343Z,1.90
2023-01-20T22:53:49.597Z,2.10
2023-01-20T22:56:00.571Z,2.23
2023-01-20T22:58:03.084Z,2.10
2023-01-20T23:00:06.386Z,2.13
2023-01-20T23:02:08.503Z,2.60
2023-01-20T23:04:10.663Z,2.10
2023-01-20T23:06:12.436Z,2.03
2023-01-20T23:08:14.245Z,2.10
2023-01-20T23:10:36.145Z,2.20
2023-01-20T23:12:37.838Z,2.00
2023-01-20T23:14:58.006Z,2.10
2023-01-20T23:16:59.652Z,2.03
2023-01-20T23:19:01.356Z,1.97
2023-01-20T23:21:05.773Z,2.10
2023-01-20T23:23:10.702Z,1.40
2023-01-20T23:25:12.488Z,1.80
2023-01-20T23:27:14.514Z,1.77
2023-01-20T23:29:16.144Z,3.43
2023-01-20T23:31:18.453Z,1.97
2023-01-20T23:33:20.178Z,3.83
2023-01-20T23:35:21.903Z,4.60
2023-01-20T23:37:23.925Z,2.80
2023-01-20T23:39:25.721Z,3.30
2023-01-20T23:41:27.678Z,2.70
2023-01-20T23:43:31.022Z,2.43
2023-01-20T23:45:32.809Z,2.10
2023-01-20T23:47:34.608Z,2.70
2023-01-20T23:49:38.024Z,3.80
2023-01-20T23:51:39.817Z,2.47
2023-01-20T23:53:41.531Z,4.00
2023-01-20T23:55:43.475Z,4.77
2023-01-20T23:57:45.361Z,4.43
2023-01-20T23:59:47.305Z,5.20
